Time;durP1;ratioP1;P1;durP2;ratioP2;P2;SDS_P1;SDS_P2;PMS_P1;PMS_P2;Temp;Humidity;BMP_temperature;BMP_pressure;BME280_temperature;BME280_humidity;BME280_pressure;Samples;Min_cycle;Max_cycle;Signal;HPM_P1;HPM_P2
2023/10/10 00:02:24;;;;;;;45.60;18.40;;;;;;;4.71;60.21;99561.88;78191;1301;3052366;-65
2023/10/10 00:04:50;;;;;;;41.80;18.60;;;;;;;4.83;59.79;99560.27;79540;1295;3011631;-66
2023/10/10 00:07:19;;;;;;;30.50;13.90;;;;;;;4.84;59.95;99556.08;79003;1295;3011820;-67
2023/10/10 00:09:46;;;;;;;25.30;11.50;;;;;;;4.94;59.87;99554.14;79465;1300;3013550;-66
2023/10/10 00:12:17;;;;;;;26.60;12.60;;;;;;;5.03;59.44;99546.70;79430;1300;3012971;-67
2023/10/10 00:14:50;;;;;;;30.30;14.70;;;;;;;5.04;59.38;99543.90;78321;1304;3054114;-67
2023/10/10 00:17:17;;;;;;;48.40;15.10;;;;;;;4.97;59.72;99545.88;79467;1302;3012342;-66
2023/10/10 00:19:54;;;;;;;34.40;14.80;;;;;;;5.00;59.70;99546.13;78382;1300;3053247;-64
2023/10/10 00:22:28;;;;;;;38.00;17.10;;;;;;;5.02;59.55;99539.64;78237;1308;3052723;-64
2023/10/10 00:24:54;;;;;;;32.40;15.80;;;;;;;5.02;59.40;99541.36;79609;1301;3011522;-66
2023/10/10 00:27:23;;;;;;;38.40;14.20;;;;;;;4.94;59.58;99540.61;78241;1295;3051697;-65
2023/10/10 00:29:50;;;;;;;30.60;12.10;;;;;;;4.95;59.54;99537.09;79639;1301;3013056;-66
2023/10/10 00:32:17;;;;;;;35.60;12.00;;;;;;;4.93;59.59;99538.41;79451;1295;3011537;-65
2023/10/10 00:34:48;;;;;;;28.50;10.10;;;;;;;4.94;59.47;99542.68;78522;1295;3050076;-65
2023/10/10 00:37:17;;;;;;;31.60;12.00;;;;;;;4.97;59.56;99543.64;79749;1300;3011777;-64
2023/10/10 00:39:52;;;;;;;26.10;10.50;;;;;;;4.96;59.57;99543.30;78249;1301;3051247;-64
2023/10/10 00:42:36;;;;;;;30.80;10.20;;;;;;;4.88;59.64;99545.85;79111;1299;3011747;-65
2023/10/10 00:45:09;;;;;;;24.60;10.30;;;;;;;4.76;59.68;99547.84;78459;1298;3069473;-67
2023/10/10 00:47:43;;;;;;;25.60;11.20;;;;;;;4.83;59.53;99541.54;79553;1300;3011852;-65
2023/10/10 00:50:16;;;;;;;37.80;13.30;;;;;;;4.72;59.88;99547.30;78440;1301;3055927;-64
2023/10/10 00:52:44;;;;;;;47.50;19.20;;;;;;;4.66;60.41;99548.19;79472;1301;3011619;-67
2023/10/10 00:55:11;;;;;;;41.10;18.00;;;;;;;4.73;60.33;99550.90;78305;1295;3052540;-64
2023/10/10 00:57:38;;;;;;;39.50;15.90;;;;;;;4.82;60.54;99545.37;79432;1298;3013542;-66
2023/10/10 01:00:10;;;;;;;30.10;14.70;;;;;;;4.85;60.58;99544.08;79397;1300;3011637;-69
2023/10/10 01:02:38;;;;;;;22.90;10.20;;;;;;;4.78;59.98;99549.48;78229;1298;3068427;-65
2023/10/10 01:05:12;;;;;;;21.90;11.80;;;;;;;4.65;59.82;99542.33;79650;1300;3013162;-64
2023/10/10 01:07:43;;;;;;;18.00;8.90;;;;;;;4.53;60.20;99542.05;78581;1298;3048888;-64
2023/10/10 01:10:11;;;;;;;14.40;7.00;;;;;;;4.58;60.50;99543.96;79538;1295;3013629;-65
2023/10/10 01:13:11;;;;;;;8.80;5.00;;;;;;;4.82;60.09;99546.42;79846;1306;3013585;-66
2023/10/10 01:15:38;;;;;;;11.90;5.60;;;;;;;4.94;59.44;99543.58;79021;1303;3011977;-64
2023/10/10 01:18:13;;;;;;;14.00;6.90;;;;;;;5.01;59.17;99541.93;78477;1307;3012002;-63
2023/10/10 01:20:46;;;;;;;11.20;6.10;;;;;;;5.00;59.28;99546.29;78761;1306;3013535;-64
2023/10/10 01:23:15;;;;;;;8.60;4.10;;;;;;;5.07;59.22;99551.42;79125;1307;3013164;-66
2023/10/10 01:25:43;;;;;;;8.90;4.30;;;;;;;5.11;59.47;99550.73;75222;1295;3131511;-65
2023/10/10 01:33:41;;;;;;;10.20;4.50;;;;;;;5.26;59.54;99546.73;79463;1296;3011828;-63
2023/10/10 01:36:12;;;;;;;8.40;4.90;;;;;;;5.19;59.75;99545.07;78142;1299;3053027;-62
2023/10/10 01:38:41;;;;;;;14.90;5.60;;;;;;;5.15;59.88;99545.89;79484;1294;3011771;-63
2023/10/10 01:41:15;;;;;;;11.10;5.00;;;;;;;5.12;59.96;99548.63;78342;1298;3053491;-64
2023/10/10 01:43:46;;;;;;;14.90;7.90;;;;;;;5.10;59.94;99547.49;79512;1300;3012650;-63
2023/10/10 01:46:27;;;;;;;17.60;7.50;;;;;;;5.11;59.87;99543.48;78209;1297;3069802;-66
2023/10/10 01:48:56;;;;;;;20.30;8.50;;;;;;;5.09;59.81;99543.73;78090;1300;3050804;-64
2023/10/10 01:51:25;;;;;;;17.00;9.50;;;;;;;5.06;59.88;99541.38;79532;1297;3014936;-64
2023/10/10 01:53:55;;;;;;;17.00;8.50;;;;;;;5.06;59.79;99538.95;78797;1297;3012090;-65
2023/10/10 01:56:22;;;;;;;20.30;9.90;;;;;;;5.03;59.72;99543.41;79355;1298;3013041;-64
2023/10/10 01:58:54;;;;;;;14.20;8.40;;;;;;;5.02;59.73;99543.28;79252;1298;3011908;-65
2023/10/10 02:01:23;;;;;;;16.10;7.70;;;;;;;4.98;59.80;99541.31;78257;1302;3052757;-63
2023/10/10 02:03:53;;;;;;;15.50;7.60;;;;;;;5.05;59.71;99540.55;79377;1295;3013375;-62
2023/10/10 02:06:34;;;;;;;18.30;7.40;;;;;;;5.07;59.41;99544.13;78290;1300;3051807;-66
2023/10/10 02:09:12;;;;;;;15.00;6.70;;;;;;;5.10;59.13;99546.45;78145;1299;3056521;-63
2023/10/10 02:11:49;;;;;;;9.90;5.30;;;;;;;5.15;58.74;99548.00;78134;1298;3049422;-64
2023/10/10 02:14:19;;;;;;;9.60;5.40;;;;;;;5.20;58.68;99548.17;78062;1296;3052585;-63
2023/10/10 02:16:49;;;;;;;11.60;6.30;;;;;;;5.23;58.38;99547.55;79395;1296;3013579;-64
2023/10/10 02:19:27;;;;;;;15.50;7.80;;;;;;;5.21;58.78;99542.75;78121;1301;3052371;-63
2023/10/10 02:24:48;;;;;;;15.50;5.40;;;;;;;5.17;58.46;99549.84;78303;1296;3068672;-64
2023/10/10 02:27:28;;;;;;;14.40;6.50;;;;;;;5.16;58.30;99547.27;78843;1298;3011659;-65
2023/10/10 02:30:03;;;;;;;26.90;11.40;;;;;;;5.15;58.33;99551.31;78174;1298;3049929;-62
2023/10/10 02:32:35;;;;;;;26.10;13.00;;;;;;;4.87;59.33;99549.70;78111;1300;3056794;-63
2023/10/10 02:35:16;;;;;;;20.60;12.80;;;;;;;4.68;59.94;99551.05;79451;1299;3011875;-66
2023/10/10 02:37:45;;;;;;;24.20;11.30;;;;;;;4.75;59.71;99547.20;78299;1296;3053323;-64
2023/10/10 02:42:39;;;;;;;21.30;9.10;;;;;;;4.82;59.23;99548.84;79398;1300;3011595;-65
2023/10/10 02:45:13;;;;;;;19.50;10.10;;;;;;;4.89;59.02;99548.96;77969;1298;3068195;-66
2023/10/10 02:47:45;;;;;;;26.70;12.00;;;;;;;4.91;58.97;99542.61;79472;1297;3011632;-66
2023/10/10 02:50:38;;;;;;;20.50;9.80;;;;;;;4.91;58.59;99548.35;78157;1296;3056640;-65
2023/10/10 02:53:07;;;;;;;20.90;11.80;;;;;;;5.02;58.21;99545.19;78242;1300;3048798;-65
2023/10/10 02:55:41;;;;;;;36.50;13.00;;;;;;;4.98;58.20;99542.04;79563;1300;3013866;-65
2023/10/10 02:58:21;;;;;;;28.00;14.20;;;;;;;4.98;58.13;99538.91;77982;1300;3050115;-63
2023/10/10 03:00:49;;;;;;;42.90;14.70;;;;;;;5.00;58.19;99540.40;78230;1300;3052509;-65
2023/10/10 03:03:19;;;;;;;42.90;16.30;;;;;;;5.01;58.23;99537.94;79458;1300;3013607;-64
2023/10/10 03:05:50;;;;;;;32.10;11.60;;;;;;;5.00;58.05;99537.08;78565;1296;3050760;-66
2023/10/10 03:11:14;;;;;;;30.90;8.90;;;;;;;5.08;57.81;99540.79;78444;1295;3048747;-68
2023/10/10 03:13:48;;;;;;;17.30;6.70;;;;;;;5.10;57.63;99539.19;78306;1299;3053245;-65
2023/10/10 03:19:12;;;;;;;9.80;4.30;;;;;;;5.29;56.78;99541.04;79597;1297;3018994;-68
2023/10/10 03:29:50;;;;;;;11.70;5.20;;;;;;;5.52;56.40;99544.86;78434;1300;3057023;-65
2023/10/10 03:32:34;;;;;;;8.50;3.20;;;;;;;5.61;56.49;99544.73;78349;1298;3049262;-67
2023/10/10 03:35:05;;;;;;;6.60;2.30;;;;;;;5.60;56.58;99545.44;78224;1300;3056138;-67
2023/10/10 03:38:29;;;;;;;6.80;1.70;;;;;;;5.59;56.55;99548.27;79605;1295;3011357;-66
2023/10/10 05:23:48;;;;;;;13.90;7.70;;;;;;;5.76;55.67;99617.83;78473;1295;3048979;-67
2023/10/10 05:26:15;;;;;;;23.40;8.70;;;;;;;5.76;55.70;99619.91;79773;1294;3011624;-66
2023/10/10 05:28:45;;;;;;;16.10;7.90;;;;;;;5.84;55.73;99618.57;79113;1295;3011749;-65
2023/10/10 05:31:11;;;;;;;19.90;8.30;;;;;;;5.90;55.51;99619.20;79594;1297;3013009;-66
2023/10/10 05:33:38;;;;;;;16.10;6.50;;;;;;;5.95;55.37;99623.34;79686;1297;3011678;-64
2023/10/10 05:36:09;;;;;;;17.50;6.20;;;;;;;5.94;55.30;99625.83;78444;1297;3050068;-69
2023/10/10 05:38:36;;;;;;;18.40;5.80;;;;;;;5.96;55.55;99622.98;79688;1294;3013398;-65
2023/10/10 05:41:06;;;;;;;17.30;7.40;;;;;;;6.02;55.64;99623.44;78489;1295;3026242;-67
2023/10/10 05:43:34;;;;;;;24.00;8.30;;;;;;;6.06;55.67;99626.27;79741;1294;3013004;-65
2023/10/10 05:46:03;;;;;;;25.90;8.30;;;;;;;6.12;55.51;99626.54;79117;1294;3011589;-67
2023/10/10 05:48:31;;;;;;;34.60;10.10;;;;;;;6.18;55.22;99630.46;79975;1297;3013384;-66
2023/10/10 05:50:59;;;;;;;21.10;9.30;;;;;;;6.34;55.36;99630.20;79695;1297;3011958;-66
2023/10/10 05:53:27;;;;;;;25.50;10.70;;;;;;;6.49;55.13;99634.64;78942;1297;3050714;-68
2023/10/10 05:55:58;;;;;;;28.80;12.30;;;;;;;6.57;54.99;99630.65;79751;1294;3013341;-65
2023/10/10 05:58:26;;;;;;;37.10;14.20;;;;;;;6.71;54.90;99636.16;78629;1295;3052226;-64
2023/10/10 06:00:53;;;;;;;34.40;15.10;;;;;;;6.76;54.83;99637.69;79726;1294;3013603;-66
2023/10/10 06:03:21;;;;;;;33.80;15.10;;;;;;;6.91;54.47;99635.67;79652;1294;3011624;-65
2023/10/10 06:05:49;;;;;;;31.80;15.00;;;;;;;7.00;54.12;99636.52;78678;1295;3069599;-67
2023/10/10 06:08:16;;;;;;;34.20;14.90;;;;;;;7.10;54.03;99637.45;80018;1295;3013468;-66
2023/10/10 06:10:43;;;;;;;42.70;15.80;;;;;;;7.27;54.04;99640.23;79768;1294;3013135;-66
2023/10/10 06:13:11;;;;;;;30.70;13.70;;;;;;;7.38;53.61;99644.05;78453;1294;3053360;-65
2023/10/10 06:15:37;;;;;;;33.20;13.70;;;;;;;7.49;53.44;99643.91;79740;1297;3015655;-65
2023/10/10 06:18:13;;;;;;;32.30;13.60;;;;;;;7.58;52.98;99640.89;79818;1297;3011447;-67
2023/10/10 06:20:41;;;;;;;34.90;12.50;;;;;;;7.60;52.53;99644.29;78357;1297;3069386;-65
2023/10/10 06:23:14;;;;;;;30.40;12.60;;;;;;;7.63;52.47;99645.04;79863;1294;3013096;-67
2023/10/10 06:25:42;;;;;;;40.10;10.60;;;;;;;7.66;52.30;99644.19;78508;1297;3049892;-66
2023/10/10 06:28:26;;;;;;;28.50;11.30;;;;;;;7.62;52.25;99641.98;79835;1295;3020678;-67
2023/10/10 06:30:53;;;;;;;26.60;11.00;;;;;;;7.67;52.52;99641.39;78555;1297;3052415;-65
2023/10/10 06:33:27;;;;;;;36.50;11.70;;;;;;;7.69;52.66;99643.39;79664;1297;3012844;-65
2023/10/10 06:36:25;;;;;;;24.10;9.70;;;;;;;7.69;52.92;99643.04;78741;1295;3051141;-66
2023/10/10 06:41:50;;;;;;;28.10;9.30;;;;;;;7.69;52.74;99642.83;78410;1297;3049574;-63
2023/10/10 06:44:31;;;;;;;19.80;7.10;;;;;;;7.71;52.41;99641.35;78466;1294;3054185;-64
2023/10/10 06:47:00;;;;;;;14.60;6.20;;;;;;;7.82;52.36;99643.29;78599;1297;3050523;-65
2023/10/10 06:49:43;;;;;;;18.30;7.10;;;;;;;7.80;52.73;99642.34;79767;1297;3013045;-65
2023/10/10 06:52:18;;;;;;;16.50;5.90;;;;;;;7.81;52.86;99644.59;78433;1295;3069567;-64
2023/10/10 06:54:53;;;;;;;12.40;5.40;;;;;;;7.97;52.49;99646.80;79071;1295;3011642;-65
2023/10/10 06:57:35;;;;;;;12.40;5.70;;;;;;;7.95;52.58;99643.90;79240;1295;3013681;-64
2023/10/10 07:02:47;;;;;;;10.70;4.80;;;;;;;8.03;52.12;99647.34;78437;1294;3057410;-67
2023/10/10 07:05:19;;;;;;;7.60;4.90;;;;;;;7.89;52.28;99643.34;79832;1294;3011632;-65
2023/10/10 07:07:52;;;;;;;22.30;6.10;;;;;;;7.98;52.65;99645.20;78487;1295;3053517;-64
2023/10/10 07:13:18;;;;;;;6.90;4.80;;;;;;;8.21;52.96;99641.12;78310;1300;3052622;-64
2023/10/10 07:15:52;;;;;;;9.60;5.40;;;;;;;8.41;52.33;99643.83;79893;1295;3012766;-63
2023/10/10 07:18:23;;;;;;;6.00;3.00;;;;;;;8.50;51.99;99643.77;78496;1294;3069511;-65
2023/10/10 07:23:37;;;;;;;;;;;;;;;8.67;51.65;99641.91;78257;1295;3056849;-64
2023/10/10 07:26:18;;;;;;;4.80;2.30;;;;;;;8.65;50.99;99646.17;79701;1296;3012753;-65
2023/10/10 07:28:54;;;;;;;5.30;2.30;;;;;;;8.70;50.74;99640.33;78512;1298;3053787;-67
2023/10/10 07:31:24;;;;;;;6.60;2.40;;;;;;;8.84;50.44;99637.37;79163;1294;3012903;-66
2023/10/10 07:33:55;;;;;;;4.50;1.80;;;;;;;8.84;50.03;99639.64;79787;1297;3013940;-65
2023/10/10 07:36:27;;;;;;;7.80;2.40;;;;;;;8.96;49.16;99634.65;78519;1294;3052467;-65
2023/10/10 07:39:04;;;;;;;6.00;2.30;;;;;;;9.11;48.63;99636.01;79551;1295;3011568;-65
2023/10/10 07:41:46;;;;;;;5.40;2.60;;;;;;;9.22;48.69;99641.37;78503;1297;3052317;-64
2023/10/10 07:44:16;;;;;;;6.10;2.10;;;;;;;9.32;48.58;99639.98;79548;1297;3013221;-65
2023/10/10 07:47:32;;;;;;;3.30;1.40;;;;;;;9.20;46.96;99642.53;78551;1297;3050632;-65
2023/10/10 07:49:33;;;;;;;4.20;1.80;;;;;;;9.11;46.58;99644.02;78188;1297;3053873;-67
2023/10/10 07:52:15;;;;;;;4.00;0.90;;;;;;;9.13;46.70;99646.04;79826;1297;3013811;-63
2023/10/10 07:54:46;;;;;;;2.70;1.30;;;;;;;9.24;46.67;99644.60;78532;1294;3054173;-65
2023/10/10 07:57:22;;;;;;;3.50;1.30;;;;;;;9.03;46.74;99641.81;79794;1294;3013592;-64
2023/10/10 07:59:55;;;;;;;1.80;1.00;;;;;;;8.98;47.31;99644.86;78344;1295;3051742;-68
2023/10/10 08:02:25;;;;;;;3.30;1.30;;;;;;;9.18;47.23;99636.17;79771;1293;3011777;-65
2023/10/10 08:04:54;;;;;;;2.20;1.20;;;;;;;9.23;47.22;99640.41;78407;1293;3048973;-62
2023/10/10 08:07:23;;;;;;;3.20;1.60;;;;;;;9.40;47.09;99636.55;79608;1295;3013660;-64
2023/10/10 08:12:40;;;;;;;2.70;1.50;;;;;;;9.52;48.38;99632.96;78300;1293;3053364;-61
2023/10/10 08:15:19;;;;;;;4.80;1.50;;;;;;;9.63;47.71;99631.69;79883;1294;3012644;-65
2023/10/10 08:17:54;;;;;;;5.60;1.30;;;;;;;9.77;47.27;99629.89;78434;1305;3051440;-66
2023/10/10 08:23:10;;;;;;;2.70;1.30;;;;;;;9.62;46.07;99629.48;78365;1294;3056981;-63
2023/10/10 08:25:39;;;;;;;3.90;1.20;;;;;;;9.61;44.77;99621.98;79635;1295;3018932;-63
2023/10/10 08:28:09;;;;;;;4.70;1.40;;;;;;;9.73;45.46;99621.35;79138;1295;3011884;-63
2023/10/10 08:30:35;;;;;;;4.80;1.40;;;;;;;9.77;45.51;99626.18;79774;1297;3012876;-63
2023/10/10 08:33:02;;;;;;;3.50;1.40;;;;;;;9.80;45.83;99631.81;79699;1294;3011853;-65
2023/10/10 08:35:36;;;;;;;5.30;1.50;;;;;;;9.67;45.73;99634.11;78246;1297;3068824;-66
2023/10/10 08:38:03;;;;;;;2.20;1.10;;;;;;;9.55;45.98;99621.42;79621;1296;3012094;-65
2023/10/10 08:40:35;;;;;;;3.20;1.30;;;;;;;9.51;46.42;99620.25;78391;1295;3058660;-68
2023/10/10 08:43:03;;;;;;;5.40;1.70;;;;;;;9.57;46.59;99620.79;79565;1294;3013453;-65
2023/10/10 08:45:40;;;;;;;4.70;1.50;;;;;;;9.74;46.42;99617.63;78511;1294;3053505;-64
2023/10/10 08:48:16;;;;;;;6.50;1.70;;;;;;;10.00;45.28;99612.39;78145;1300;3050073;-63
2023/10/10 08:50:47;;;;;;;3.30;1.40;;;;;;;10.03;45.21;99612.38;78422;1294;3051453;-63
2023/10/10 08:53:13;;;;;;;10.40;1.80;;;;;;;10.05;45.57;99610.50;79733;1297;3011445;-67
2023/10/10 08:55:42;;;;;;;7.20;2.20;;;;;;;10.01;45.89;99615.46;79221;1294;3013072;-64
2023/10/10 08:58:10;;;;;;;6.90;2.30;;;;;;;9.87;46.19;99615.52;79878;1294;3013678;-71
2023/10/10 09:00:37;;;;;;;4.70;2.30;;;;;;;9.79;46.37;99618.56;79659;1294;3011492;-67
2023/10/10 09:03:08;;;;;;;5.30;2.40;;;;;;;9.62;46.54;99616.89;78565;1297;3052024;-66
2023/10/10 09:05:34;;;;;;;6.70;2.60;;;;;;;9.50;47.04;99616.14;79694;1295;3011845;-66
2023/10/10 09:08:14;;;;;;;8.30;2.30;;;;;;;9.44;47.39;99615.20;79440;1294;3011554;-65
2023/10/10 09:10:46;;;;;;;5.90;2.90;;;;;;;9.70;47.19;99609.45;78501;1294;3052312;-65
2023/10/10 09:13:12;;;;;;;6.00;2.90;;;;;;;9.86;47.25;99606.13;79589;1297;3013157;-64
2023/10/10 09:15:55;;;;;;;6.90;2.70;;;;;;;10.08;46.84;99604.55;78371;1295;3026761;-65
2023/10/10 09:18:25;;;;;;;6.70;3.10;;;;;;;10.17;46.25;99602.28;78417;1297;3056985;-65
2023/10/10 09:20:55;;;;;;;8.20;2.60;;;;;;;10.15;46.20;99595.25;79727;1295;3013463;-67
2023/10/10 09:23:24;;;;;;;5.90;2.70;;;;;;;10.19;46.50;99591.14;78556;1295;3052576;-65
2023/10/10 09:26:08;;;;;;;3.10;1.70;;;;;;;10.28;45.59;99595.37;79652;1294;3013643;-66
2023/10/10 09:28:49;;;;;;;5.20;2.30;;;;;;;10.48;45.19;99587.75;78443;1297;3053770;-65
2023/10/10 09:31:59;;;;;;;5.80;2.00;;;;;;;10.75;44.80;99583.39;78381;1295;3053092;-65
2023/10/10 09:34:12;;;;;;;6.10;1.80;;;;;;;10.78;43.87;99584.25;78560;1295;3071023;-65
2023/10/10 09:36:50;;;;;;;4.50;1.90;;;;;;;10.79;43.65;99576.19;79650;1295;3013546;-66
2023/10/10 09:39:37;;;;;;;3.30;1.80;;;;;;;10.58;43.42;99572.67;78273;1298;3055191;-66
2023/10/10 09:47:52;;;;;;;7.90;2.70;;;;;;;10.37;44.16;99569.66;78366;1301;3051856;-66
2023/10/10 09:52:53;;;;;;;6.10;2.40;;;;;;;10.39;43.38;99568.66;79618;1298;3013858;-66
2023/10/10 09:58:16;;;;;;;4.60;2.20;;;;;;;10.33;42.67;99561.31;79491;1298;3013456;-65
2023/10/10 10:09:08;;;;;;;7.40;2.40;;;;;;;10.46;42.67;99570.73;78717;1295;3068724;-68
2023/10/10 10:11:47;;;;;;;6.40;2.00;;;;;;;10.51;43.05;99562.20;78432;1297;3052107;-70
2023/10/10 10:14:21;;;;;;;4.10;2.00;;;;;;;10.61;42.46;99561.09;78556;1297;3056896;-70
2023/10/10 10:16:58;;;;;;;3.60;1.60;;;;;;;10.67;41.57;99562.98;80029;1295;3013144;-68
2023/10/10 10:19:28;;;;;;;6.00;1.30;;;;;;;10.75;40.93;99558.55;78472;1295;3051879;-72
2023/10/10 10:22:08;;;;;;;6.10;1.70;;;;;;;10.96;41.09;99560.98;79655;1295;3011360;-70
2023/10/10 10:25:21;;;;;;;4.70;1.70;;;;;;;11.01;40.77;99558.01;78426;1294;3052883;-69
2023/10/10 10:27:43;;;;;;;5.60;2.00;;;;;;;10.87;40.61;99564.98;78369;1296;3054251;-63
2023/10/10 10:32:53;;;;;;;5.50;2.10;;;;;;;10.92;39.92;99564.86;78350;1296;3057513;-64
2023/10/10 10:35:36;;;;;;;4.00;1.80;;;;;;;10.73;39.45;99562.13;79602;1295;3011617;-67
2023/10/10 10:38:06;;;;;;;7.50;2.70;;;;;;;10.47;39.68;99565.23;78350;1297;3053614;-65
2023/10/10 10:43:14;;;;;;;4.30;2.10;;;;;;;10.79;39.88;99552.85;78531;1297;3054342;-69
2023/10/10 10:45:44;;;;;;;5.10;2.40;;;;;;;11.17;39.62;99550.00;79875;1297;3013535;-66
2023/10/10 10:48:31;;;;;;;4.40;2.40;;;;;;;11.20;38.57;99547.58;78603;1294;3069751;-72
2023/10/10 10:51:27;;;;;;;6.70;1.90;;;;;;;11.12;37.48;99553.67;78514;1294;3050186;-67
2023/10/10 10:53:58;;;;;;;8.50;2.60;;;;;;;10.89;36.54;99548.38;78172;1296;3059684;-68
2023/10/10 10:59:13;;;;;;;4.40;2.60;;;;;;;11.20;36.52;99546.69;78496;1295;3054921;-71
2023/10/10 11:01:57;;;;;;;8.60;3.50;;;;;;;11.47;36.98;99549.41;78388;1297;3049779;-69
2023/10/10 11:04:40;;;;;;;7.40;3.30;;;;;;;11.51;37.08;99548.12;78394;1297;3052827;-68
2023/10/10 11:07:08;;;;;;;14.30;3.50;;;;;;;11.45;37.27;99549.00;78383;1298;3053317;-71
2023/10/10 11:09:43;;;;;;;5.70;2.80;;;;;;;11.51;37.10;99547.19;79539;1297;3011964;-67
2023/10/10 11:12:12;;;;;;;6.50;2.50;;;;;;;11.62;37.05;99540.38;78445;1294;3057074;-68
2023/10/10 11:14:45;;;;;;;6.30;2.40;;;;;;;11.84;36.39;99539.49;80026;1295;3013397;-67
2023/10/10 11:20:26;;;;;;;3.20;1.70;;;;;;;11.79;34.75;99536.34;80537;1296;3013425;-69
2023/10/10 11:22:56;;;;;;;3.00;1.40;;;;;;;11.73;34.85;99537.57;78115;1299;3053216;-66
2023/10/10 11:25:41;;;;;;;4.20;2.20;;;;;;;11.59;34.59;99536.88;79431;1299;3012930;-71
2023/10/10 11:28:21;;;;;;;3.80;1.70;;;;;;;11.79;34.62;99542.25;78306;1301;3053116;-70
2023/10/10 11:30:50;;;;;;;7.30;2.10;;;;;;;11.99;34.28;99536.65;78226;1304;3053245;-69
2023/10/10 11:33:31;;;;;;;6.10;1.90;;;;;;;12.10;33.76;99534.54;77209;1298;3349044;-67
2023/10/10 11:36:29;;;;;;;3.30;1.50;;;;;;;12.31;34.86;99538.20;78277;1296;3057066;-71
2023/10/10 11:39:15;;;;;;;3.70;1.50;;;;;;;12.19;32.95;99536.37;78205;1301;3049534;-70
2023/10/10 11:41:46;;;;;;;6.60;1.60;;;;;;;12.27;33.62;99538.65;78330;1296;3052960;-69
2023/10/10 11:44:17;;;;;;;2.40;1.30;;;;;;;12.45;34.00;99537.84;79425;1301;3011519;-71
2023/10/10 11:46:46;;;;;;;4.30;1.70;;;;;;;12.41;33.30;99535.10;78131;1301;3051383;-71
2023/10/10 11:49:16;;;;;;;3.00;1.50;;;;;;;12.49;33.54;99532.46;79552;1300;3013707;-69
2023/10/10 11:51:44;;;;;;;4.50;1.60;;;;;;;12.62;34.33;99533.55;78421;1298;3050567;-68
2023/10/10 11:54:10;;;;;;;3.40;1.60;;;;;;;12.76;33.96;99535.36;79574;1295;3013657;-65
2023/10/10 11:56:37;;;;;;;8.80;2.10;;;;;;;13.04;33.88;99530.45;79638;1301;3011521;-66
2023/10/10 11:59:09;;;;;;;5.60;1.80;;;;;;;12.95;33.71;99535.30;78284;1302;3026681;-71
2023/10/10 12:02:29;;;;;;;4.50;1.50;;;;;;;13.00;33.43;99527.55;79467;1301;3013236;-68
2023/10/10 12:04:36;;;;;;;3.50;1.20;;;;;;;12.97;33.49;99538.52;78448;1302;3052891;-71
2023/10/10 12:07:04;;;;;;;2.70;1.30;;;;;;;12.81;33.57;99538.33;79508;1299;3012015;-65
2023/10/10 12:09:33;;;;;;;3.70;1.70;;;;;;;12.83;33.98;99541.05;78242;1300;3050441;-64
2023/10/10 12:12:02;;;;;;;5.90;1.60;;;;;;;12.81;34.19;99535.74;79551;1295;3019428;-66
2023/10/10 12:14:31;;;;;;;5.90;1.80;;;;;;;12.81;33.89;99536.24;78956;1299;3011811;-66
2023/10/10 12:16:58;;;;;;;5.00;1.60;;;;;;;12.77;33.59;99534.98;79604;1299;3013909;-68
2023/10/10 12:19:36;;;;;;;7.70;1.70;;;;;;;12.75;33.63;99539.70;79429;1300;3011342;-67
2023/10/10 12:22:08;;;;;;;3.10;1.40;;;;;;;12.53;33.56;99533.95;78345;1301;3052913;-68
2023/10/10 12:24:35;;;;;;;6.50;2.30;;;;;;;12.67;33.52;99533.15;79399;1301;3011586;-66
2023/10/10 12:27:07;;;;;;;6.30;1.80;;;;;;;12.81;33.45;99537.68;78292;1301;3050970;-69
2023/10/10 12:29:39;;;;;;;3.80;1.70;;;;;;;12.92;33.43;99536.58;79440;1300;3012997;-65
2023/10/10 12:32:18;;;;;;;6.80;1.70;;;;;;;13.09;33.94;99530.83;78272;1301;3049531;-67
2023/10/10 12:34:47;;;;;;;4.40;2.00;;;;;;;13.06;33.77;99532.95;78225;1296;3052917;-68
2023/10/10 12:37:17;;;;;;;6.10;2.30;;;;;;;12.86;33.75;99530.45;79517;1301;3012923;-68
2023/10/10 12:39:45;;;;;;;7.10;2.30;;;;;;;12.97;33.85;99525.14;78248;1301;3053017;-66
2023/10/10 12:42:12;;;;;;;5.00;2.10;;;;;;;13.07;33.58;99519.86;79292;1295;3015574;-69
2023/10/10 12:44:38;;;;;;;5.20;2.00;;;;;;;13.05;32.62;99524.56;79407;1296;3011527;-63
2023/10/10 12:47:06;;;;;;;4.00;1.70;;;;;;;12.75;32.35;99522.96;78196;1298;3049398;-66
2023/10/10 12:49:36;;;;;;;6.90;2.70;;;;;;;12.61;32.65;99524.62;79539;1300;3012950;-72
2023/10/10 12:52:11;;;;;;;7.70;2.40;;;;;;;12.47;33.07;99522.26;79088;1301;3013419;-69
2023/10/10 12:54:38;;;;;;;6.10;1.80;;;;;;;12.41;33.26;99524.38;79518;1296;3012121;-70
2023/10/10 12:57:13;;;;;;;5.70;2.20;;;;;;;12.41;33.53;99525.60;78284;1301;3053394;-68
2023/10/10 12:59:48;;;;;;;8.20;2.80;;;;;;;12.26;33.90;99536.27;79039;1298;3011861;-68
2023/10/10 13:02:15;;;;;;;6.20;2.70;;;;;;;12.07;34.29;99536.61;79641;1301;3011697;-69
2023/10/10 13:04:46;;;;;;;6.80;3.10;;;;;;;12.06;34.61;99537.04;78288;1296;3051699;-67
2023/10/10 13:07:15;;;;;;;11.40;3.00;;;;;;;11.84;35.14;99540.53;79479;1296;3011651;-70
2023/10/10 13:09:46;;;;;;;11.10;3.40;;;;;;;11.81;35.32;99536.51;78391;1301;3049304;-64
2023/10/10 13:12:18;;;;;;;8.10;3.60;;;;;;;11.88;35.44;99533.81;79437;1301;3011708;-67
2023/10/10 13:14:52;;;;;;;6.50;3.10;;;;;;;11.88;35.54;99534.33;78304;1301;3050341;-69
2023/10/10 13:19:52;;;;;;;5.20;2.60;;;;;;;11.93;35.75;99537.19;79452;1298;3012258;-66
2023/10/10 13:22:23;;;;;;;5.30;2.40;;;;;;;11.94;35.81;99533.63;78284;1298;3026299;-70
2023/10/10 13:24:49;;;;;;;6.50;2.00;;;;;;;11.91;35.94;99536.80;79337;1299;3011774;-66
2023/10/10 13:27:20;;;;;;;9.40;2.50;;;;;;;11.93;35.92;99538.95;79044;1301;3011688;-68
2023/10/10 13:29:47;;;;;;;4.70;1.80;;;;;;;12.03;35.53;99539.50;79431;1301;3013693;-66
2023/10/10 13:32:14;;;;;;;3.00;1.20;;;;;;;11.96;35.16;99538.06;79534;1301;3011667;-64
2023/10/10 13:34:41;;;;;;;2.60;1.50;;;;;;;11.88;35.34;99536.41;78286;1301;3050307;-67
2023/10/10 13:37:09;;;;;;;3.80;1.90;;;;;;;11.79;35.44;99535.40;79382;1301;3013081;-65
2023/10/10 13:39:48;;;;;;;2.60;1.40;;;;;;;11.74;35.76;99541.52;79495;1299;3011866;-66
2023/10/10 13:42:20;;;;;;;5.80;1.30;;;;;;;11.87;35.56;99543.16;78249;1299;3050537;-68
2023/10/10 13:44:48;;;;;;;3.00;1.50;;;;;;;11.68;36.21;99540.18;79578;1302;3011696;-70
2023/10/10 13:47:17;;;;;;;2.50;1.30;;;;;;;11.60;36.32;99545.60;78854;1301;3011571;-69
2023/10/10 13:49:58;;;;;;;3.80;1.30;;;;;;;11.56;36.58;99547.94;79433;1301;3013127;-68
2023/10/10 13:52:26;;;;;;;2.60;1.20;;;;;;;11.38;36.59;99558.20;78280;1301;3054243;-69
2023/10/10 13:54:52;;;;;;;4.80;1.50;;;;;;;11.20;36.85;99554.55;79696;1301;3013277;-69
2023/10/10 13:57:19;;;;;;;3.00;1.50;;;;;;;11.24;36.92;99558.02;79597;1300;3013657;-69
2023/10/10 13:59:49;;;;;;;6.30;1.50;;;;;;;11.30;37.06;99557.82;78360;1299;3026773;-65
2023/10/10 14:02:16;;;;;;;4.00;1.30;;;;;;;11.27;37.25;99561.01;79598;1302;3011733;-68
2023/10/10 14:04:47;;;;;;;3.00;1.30;;;;;;;11.29;37.39;99558.41;79125;1299;3013233;-65
2023/10/10 14:07:16;;;;;;;5.40;1.40;;;;;;;11.07;37.65;99566.76;79464;1300;3012910;-71
2023/10/10 14:09:53;;;;;;;9.20;1.60;;;;;;;11.05;37.98;99569.31;78184;1301;3052527;-66
2023/10/10 14:12:20;;;;;;;6.30;1.40;;;;;;;11.12;38.13;99566.66;78234;1302;3052908;-67
2023/10/10 14:14:47;;;;;;;6.30;1.90;;;;;;;10.96;38.60;99568.27;79498;1301;3013655;-68
2023/10/10 14:17:14;;;;;;;4.80;1.70;;;;;;;10.97;39.02;99572.11;79503;1296;3012798;-68
2023/10/10 14:19:42;;;;;;;4.50;1.70;;;;;;;10.96;39.00;99569.20;78206;1301;3025496;-67
2023/10/10 14:22:10;;;;;;;6.10;2.00;;;;;;;10.92;39.39;99576.98;79445;1301;3011645;-69
2023/10/10 14:24:37;;;;;;;6.00;2.00;;;;;;;10.95;39.33;99581.33;79560;1298;3011834;-68
2023/10/10 14:27:05;;;;;;;2.70;1.60;;;;;;;10.92;39.43;99585.56;78181;1300;3052694;-67
2023/10/10 14:29:41;;;;;;;6.70;1.90;;;;;;;10.73;39.65;99591.41;79462;1297;3013291;-69
2023/10/10 14:32:10;;;;;;;6.40;1.80;;;;;;;10.62;40.37;99593.45;78580;1300;3055705;-66
2023/10/10 14:34:38;;;;;;;4.40;1.80;;;;;;;10.53;40.83;99591.56;79559;1296;3013109;-69
2023/10/10 14:37:07;;;;;;;6.60;2.30;;;;;;;10.53;40.95;99597.84;78959;1301;3011929;-69
2023/10/10 14:39:44;;;;;;;4.80;2.10;;;;;;;10.55;41.15;99598.39;79420;1299;3013049;-71